sensor_id;sensor_type;location;lat;lon;timestamp;P1;durP1;ratioP1;P2;durP2;ratioP2
25409;SDS011;13339;50.840;4.346;2022-08-19T00:01:49;24.70;;;21.93;;
25409;SDS011;13339;50.840;4.346;2022-08-19T00:04:17;25.60;;;21.97;;
25409;SDS011;13339;50.840;4.346;2022-08-19T00:06:45;24.23;;;21.67;;
25409;SDS011;13339;50.840;4.346;2022-08-19T00:09:13;28.60;;;22.53;;
25409;SDS011;13339;50.840;4.346;2022-08-19T00:11:42;31.13;;;23.43;;
25409;SDS011;13339;50.840;4.346;2022-08-19T00:14:09;30.97;;;23.60;;
25409;SDS011;13339;50.840;4.346;2022-08-19T00:16:38;30.57;;;24.93;;
25409;SDS011;13339;50.840;4.346;2022-08-19T00:19:06;33.07;;;26.40;;
25409;SDS011;13339;50.840;4.346;2022-08-19T00:21:32;36.60;;;29.67;;
25409;SDS011;13339;50.840;4.346;2022-08-19T00:24:01;44.57;;;30.70;;
25409;SDS011;13339;50.840;4.346;2022-08-19T00:26:27;47.20;;;35.20;;
25409;SDS011;13339;50.840;4.346;2022-08-19T00:28:53;49.67;;;35.00;;
25409;SDS011;13339;50.840;4.346;2022-08-19T00:31:19;51.97;;;36.07;;
25409;SDS011;13339;50.840;4.346;2022-08-19T00:33:45;54.80;;;37.47;;
25409;SDS011;13339;50.840;4.346;2022-08-19T00:36:14;60.70;;;39.93;;
25409;SDS011;13339;50.840;4.346;2022-08-19T00:38:39;55.60;;;36.10;;
25409;SDS011;13339;50.840;4.346;2022-08-19T00:41:09;56.10;;;37.90;;
25409;SDS011;13339;50.840;4.346;2022-08-19T00:43:37;58.27;;;39.43;;
25409;SDS011;13339;50.840;4.346;2022-08-19T00:46:03;59.60;;;40.93;;
25409;SDS011;13339;50.840;4.346;2022-08-19T00:48:30;65.43;;;43.23;;
25409;SDS011;13339;50.840;4.346;2022-08-19T00:50:58;62.50;;;43.97;;
25409;SDS011;13339;50.840;4.346;2022-08-19T00:53:26;63.67;;;44.07;;
25409;SDS011;13339;50.840;4.346;2022-08-19T00:55:56;69.47;;;44.20;;
25409;SDS011;13339;50.840;4.346;2022-08-19T00:58:26;61.33;;;42.63;;
25409;SDS011;13339;50.840;4.346;2022-08-19T01:00:55;64.77;;;44.37;;
25409;SDS011;13339;50.840;4.346;2022-08-19T01:03:21;60.57;;;42.17;;
25409;SDS011;13339;50.840;4.346;2022-08-19T01:05:47;63.37;;;41.70;;
25409;SDS011;13339;50.840;4.346;2022-08-19T01:08:15;62.33;;;40.80;;
25409;SDS011;13339;50.840;4.346;2022-08-19T01:10:43;58.90;;;42.23;;
25409;SDS011;13339;50.840;4.346;2022-08-19T01:13:13;55.40;;;40.00;;
25409;SDS011;13339;50.840;4.346;2022-08-19T01:15:44;55.50;;;38.90;;
25409;SDS011;13339;50.840;4.346;2022-08-19T01:18:14;55.13;;;37.67;;
25409;SDS011;13339;50.840;4.346;2022-08-19T01:20:41;55.83;;;37.87;;
25409;SDS011;13339;50.840;4.346;2022-08-19T01:23:08;52.13;;;36.83;;
25409;SDS011;13339;50.840;4.346;2022-08-19T01:25:50;51.57;;;35.40;;
25409;SDS011;13339;50.840;4.346;2022-08-19T01:28:23;50.77;;;36.50;;
25409;SDS011;13339;50.840;4.346;2022-08-19T01:30:51;47.40;;;35.93;;
25409;SDS011;13339;50.840;4.346;2022-08-19T01:33:18;49.13;;;35.83;;
25409;SDS011;13339;50.840;4.346;2022-08-19T01:35:44;51.73;;;36.83;;
25409;SDS011;13339;50.840;4.346;2022-08-19T01:38:19;47.67;;;33.83;;
25409;SDS011;13339;50.840;4.346;2022-08-19T01:40:46;46.63;;;34.93;;
25409;SDS011;13339;50.840;4.346;2022-08-19T01:43:12;46.20;;;31.87;;
25409;SDS011;13339;50.840;4.346;2022-08-19T01:45:38;38.03;;;29.87;;
25409;SDS011;13339;50.840;4.346;2022-08-19T01:48:05;40.03;;;30.33;;
25409;SDS011;13339;50.840;4.346;2022-08-19T01:50:31;38.97;;;30.93;;
25409;SDS011;13339;50.840;4.346;2022-08-19T01:52:59;38.90;;;30.07;;
25409;SDS011;13339;50.840;4.346;2022-08-19T01:55:25;37.53;;;29.90;;
25409;SDS011;13339;50.840;4.346;2022-08-19T01:57:52;41.13;;;31.73;;
25409;SDS011;13339;50.840;4.346;2022-08-19T02:00:23;42.47;;;30.77;;
25409;SDS011;13339;50.840;4.346;2022-08-19T02:02:50;39.73;;;30.33;;
25409;SDS011;13339;50.840;4.346;2022-08-19T02:05:16;34.00;;;25.50;;
25409;SDS011;13339;50.840;4.346;2022-08-19T02:07:43;32.67;;;25.30;;
25409;SDS011;13339;50.840;4.346;2022-08-19T02:10:14;30.93;;;25.50;;
25409;SDS011;13339;50.840;4.346;2022-08-19T02:12:43;32.90;;;24.43;;
25409;SDS011;13339;50.840;4.346;2022-08-19T02:15:09;33.50;;;24.83;;
25409;SDS011;13339;50.840;4.346;2022-08-19T02:17:35;31.77;;;25.57;;
25409;SDS011;13339;50.840;4.346;2022-08-19T02:20:00;36.53;;;26.07;;
25409;SDS011;13339;50.840;4.346;2022-08-19T02:22:26;38.83;;;29.97;;
25409;SDS011;13339;50.840;4.346;2022-08-19T02:24:52;36.00;;;28.77;;
25409;SDS011;13339;50.840;4.346;2022-08-19T02:27:18;44.03;;;27.67;;
25409;SDS011;13339;50.840;4.346;2022-08-19T02:29:45;36.03;;;27.43;;
25409;SDS011;13339;50.840;4.346;2022-08-19T02:32:12;39.67;;;28.47;;
25409;SDS011;13339;50.840;4.346;2022-08-19T02:34:38;35.63;;;26.47;;
25409;SDS011;13339;50.840;4.346;2022-08-19T02:37:04;36.10;;;27.60;;
25409;SDS011;13339;50.840;4.346;2022-08-19T02:39:30;34.57;;;25.67;;
25409;SDS011;13339;50.840;4.346;2022-08-19T02:41:56;37.00;;;25.93;;
25409;SDS011;13339;50.840;4.346;2022-08-19T02:44:24;36.07;;;27.90;;
25409;SDS011;13339;50.840;4.346;2022-08-19T02:46:50;42.90;;;26.97;;
25409;SDS011;13339;50.840;4.346;2022-08-19T02:49:15;35.83;;;26.90;;
25409;SDS011;13339;50.840;4.346;2022-08-19T02:51:42;38.50;;;28.50;;
25409;SDS011;13339;50.840;4.346;2022-08-19T02:54:10;35.23;;;27.43;;
25409;SDS011;13339;50.840;4.346;2022-08-19T02:56:38;41.30;;;28.50;;
25409;SDS011;13339;50.840;4.346;2022-08-19T02:59:04;40.13;;;27.07;;
25409;SDS011;13339;50.840;4.346;2022-08-19T03:01:33;34.77;;;25.80;;
25409;SDS011;13339;50.840;4.346;2022-08-19T03:04:00;35.33;;;26.70;;
25409;SDS011;13339;50.840;4.346;2022-08-19T03:06:27;36.47;;;26.37;;
25409;SDS011;13339;50.840;4.346;2022-08-19T03:08:54;36.67;;;25.83;;
25409;SDS011;13339;50.840;4.346;2022-08-19T03:13:54;37.03;;;24.50;;
25409;SDS011;13339;50.840;4.346;2022-08-19T03:16:22;34.53;;;25.13;;
25409;SDS011;13339;50.840;4.346;2022-08-19T03:18:51;39.97;;;26.37;;
25409;SDS011;13339;50.840;4.346;2022-08-19T03:21:20;38.63;;;25.80;;
25409;SDS011;13339;50.840;4.346;2022-08-19T03:23:48;36.03;;;26.10;;
25409;SDS011;13339;50.840;4.346;2022-08-19T03:26:14;38.43;;;25.77;;
25409;SDS011;13339;50.840;4.346;2022-08-19T03:28:40;40.23;;;24.97;;
25409;SDS011;13339;50.840;4.346;2022-08-19T03:31:08;36.07;;;25.17;;
25409;SDS011;13339;50.840;4.346;2022-08-19T03:33:37;36.53;;;25.33;;
25409;SDS011;13339;50.840;4.346;2022-08-19T03:38:32;34.73;;;24.63;;
25409;SDS011;13339;50.840;4.346;2022-08-19T03:41:01;34.90;;;24.03;;
25409;SDS011;13339;50.840;4.346;2022-08-19T03:43:31;37.70;;;23.57;;
25409;SDS011;13339;50.840;4.346;2022-08-19T03:46:05;36.07;;;24.07;;
25409;SDS011;13339;50.840;4.346;2022-08-19T03:48:33;38.40;;;25.33;;
25409;SDS011;13339;50.840;4.346;2022-08-19T03:51:00;37.43;;;25.63;;
25409;SDS011;13339;50.840;4.346;2022-08-19T03:53:26;44.77;;;26.17;;
25409;SDS011;13339;50.840;4.346;2022-08-19T03:55:54;43.23;;;26.50;;
25409;SDS011;13339;50.840;4.346;2022-08-19T03:58:20;40.17;;;27.30;;
25409;SDS011;13339;50.840;4.346;2022-08-19T04:00:47;42.67;;;25.93;;
25409;SDS011;13339;50.840;4.346;2022-08-19T04:03:13;38.33;;;25.20;;
25409;SDS011;13339;50.840;4.346;2022-08-19T04:05:38;37.77;;;27.30;;
25409;SDS011;13339;50.840;4.346;2022-08-19T04:08:04;39.77;;;25.47;;
25409;SDS011;13339;50.840;4.346;2022-08-19T04:10:31;33.37;;;21.27;;
25409;SDS011;13339;50.840;4.346;2022-08-19T04:13:00;28.23;;;20.13;;
25409;SDS011;13339;50.840;4.346;2022-08-19T04:15:26;35.57;;;24.47;;
25409;SDS011;13339;50.840;4.346;2022-08-19T04:17:55;34.93;;;23.10;;
25409;SDS011;13339;50.840;4.346;2022-08-19T04:20:20;36.23;;;24.60;;
25409;SDS011;13339;50.840;4.346;2022-08-19T04:22:46;31.77;;;22.47;;
25409;SDS011;13339;50.840;4.346;2022-08-19T04:25:11;35.33;;;22.77;;
25409;SDS011;13339;50.840;4.346;2022-08-19T04:27:37;35.13;;;22.77;;
25409;SDS011;13339;50.840;4.346;2022-08-19T04:30:03;33.30;;;21.67;;
25409;SDS011;13339;50.840;4.346;2022-08-19T04:32:29;32.57;;;21.60;;
25409;SDS011;13339;50.840;4.346;2022-08-19T04:34:56;33.13;;;22.27;;
25409;SDS011;13339;50.840;4.346;2022-08-19T04:37:23;31.40;;;19.00;;
25409;SDS011;13339;50.840;4.346;2022-08-19T04:39:51;31.40;;;20.90;;
25409;SDS011;13339;50.840;4.346;2022-08-19T04:42:35;31.07;;;17.40;;
25409;SDS011;13339;50.840;4.346;2022-08-19T04:45:08;30.50;;;17.63;;
25409;SDS011;13339;50.840;4.346;2022-08-19T04:47:39;28.80;;;17.63;;
25409;SDS011;13339;50.840;4.346;2022-08-19T04:50:07;26.00;;;17.67;;
25409;SDS011;13339;50.840;4.346;2022-08-19T04:52:34;30.63;;;19.47;;
25409;SDS011;13339;50.840;4.346;2022-08-19T04:55:00;27.10;;;16.87;;
25409;SDS011;13339;50.840;4.346;2022-08-19T04:57:25;25.83;;;16.40;;
25409;SDS011;13339;50.840;4.346;2022-08-19T04:59:55;23.83;;;15.27;;
25409;SDS011;13339;50.840;4.346;2022-08-19T05:02:21;30.17;;;17.77;;
25409;SDS011;13339;50.840;4.346;2022-08-19T05:04:51;24.20;;;17.07;;
25409;SDS011;13339;50.840;4.346;2022-08-19T05:07:22;30.33;;;17.67;;
25409;SDS011;13339;50.840;4.346;2022-08-19T05:09:47;27.77;;;17.60;;
25409;SDS011;13339;50.840;4.346;2022-08-19T05:12:13;32.03;;;19.27;;
25409;SDS011;13339;50.840;4.346;2022-08-19T05:14:38;30.43;;;17.17;;
25409;SDS011;13339;50.840;4.346;2022-08-19T05:17:04;28.07;;;17.83;;
25409;SDS011;13339;50.840;4.346;2022-08-19T05:19:30;27.83;;;16.93;;
25409;SDS011;13339;50.840;4.346;2022-08-19T05:22:14;36.30;;;17.73;;
25409;SDS011;13339;50.840;4.346;2022-08-19T05:24:58;29.73;;;17.57;;
25409;SDS011;13339;50.840;4.346;2022-08-19T05:27:25;34.10;;;18.53;;
25409;SDS011;13339;50.840;4.346;2022-08-19T05:29:51;30.53;;;18.07;;
25409;SDS011;13339;50.840;4.346;2022-08-19T05:32:16;25.03;;;13.87;;
25409;SDS011;13339;50.840;4.346;2022-08-19T05:34:42;31.17;;;16.83;;
25409;SDS011;13339;50.840;4.346;2022-08-19T05:37:07;29.13;;;18.27;;
25409;SDS011;13339;50.840;4.346;2022-08-19T05:39:34;27.07;;;18.17;;
25409;SDS011;13339;50.840;4.346;2022-08-19T05:42:03;32.07;;;18.80;;
25409;SDS011;13339;50.840;4.346;2022-08-19T05:44:32;30.13;;;17.07;;
25409;SDS011;13339;50.840;4.346;2022-08-19T05:47:00;29.90;;;16.37;;
25409;SDS011;13339;50.840;4.346;2022-08-19T05:49:27;29.33;;;18.23;;
25409;SDS011;13339;50.840;4.346;2022-08-19T05:51:54;25.97;;;16.80;;
25409;SDS011;13339;50.840;4.346;2022-08-19T05:54:20;25.93;;;15.80;;
25409;SDS011;13339;50.840;4.346;2022-08-19T05:56:48;32.40;;;17.10;;
25409;SDS011;13339;50.840;4.346;2022-08-19T05:59:15;25.63;;;15.97;;
25409;SDS011;13339;50.840;4.346;2022-08-19T06:01:42;29.13;;;16.30;;
25409;SDS011;13339;50.840;4.346;2022-08-19T06:04:10;24.13;;;15.67;;
25409;SDS011;13339;50.840;4.346;2022-08-19T06:06:36;24.97;;;15.33;;
25409;SDS011;13339;50.840;4.346;2022-08-19T06:09:02;31.97;;;15.43;;
25409;SDS011;13339;50.840;4.346;2022-08-19T06:11:34;21.63;;;14.37;;
25409;SDS011;13339;50.840;4.346;2022-08-19T06:14:17;19.87;;;12.80;;
25409;SDS011;13339;50.840;4.346;2022-08-19T06:16:45;17.50;;;11.57;;
25409;SDS011;13339;50.840;4.346;2022-08-19T06:19:12;19.20;;;11.90;;
25409;SDS011;13339;50.840;4.346;2022-08-19T06:21:41;19.70;;;11.67;;
25409;SDS011;13339;50.840;4.346;2022-08-19T06:24:09;23.07;;;11.30;;
25409;SDS011;13339;50.840;4.346;2022-08-19T06:26:37;24.13;;;11.70;;
25409;SDS011;13339;50.840;4.346;2022-08-19T06:29:05;20.93;;;11.13;;
25409;SDS011;13339;50.840;4.346;2022-08-19T06:31:34;24.90;;;9.43;;
25409;SDS011;13339;50.840;4.346;2022-08-19T06:34:02;23.83;;;11.20;;
25409;SDS011;13339;50.840;4.346;2022-08-19T06:36:31;15.83;;;8.57;;
25409;SDS011;13339;50.840;4.346;2022-08-19T06:39:09;23.07;;;10.37;;
25409;SDS011;13339;50.840;4.346;2022-08-19T06:41:37;19.23;;;9.73;;
25409;SDS011;13339;50.840;4.346;2022-08-19T06:44:05;14.47;;;9.60;;
25409;SDS011;13339;50.840;4.346;2022-08-19T06:46:31;19.60;;;9.47;;
25409;SDS011;13339;50.840;4.346;2022-08-19T06:48:57;22.30;;;9.97;;
25409;SDS011;13339;50.840;4.346;2022-08-19T06:51:23;21.27;;;7.87;;
25409;SDS011;13339;50.840;4.346;2022-08-19T06:53:50;20.87;;;9.70;;
25409;SDS011;13339;50.840;4.346;2022-08-19T06:56:19;23.03;;;9.27;;
25409;SDS011;13339;50.840;4.346;2022-08-19T06:58:47;18.40;;;8.77;;
25409;SDS011;13339;50.840;4.346;2022-08-19T07:01:16;19.00;;;9.63;;
25409;SDS011;13339;50.840;4.346;2022-08-19T07:03:41;19.77;;;9.70;;
25409;SDS011;13339;50.840;4.346;2022-08-19T07:06:09;13.43;;;8.87;;
25409;SDS011;13339;50.840;4.346;2022-08-19T07:08:36;15.27;;;8.40;;
25409;SDS011;13339;50.840;4.346;2022-08-19T07:11:09;16.63;;;7.60;;
25409;SDS011;13339;50.840;4.346;2022-08-19T07:13:36;15.57;;;9.10;;
25409;SDS011;13339;50.840;4.346;2022-08-19T07:16:11;18.40;;;9.13;;
25409;SDS011;13339;50.840;4.346;2022-08-19T07:18:39;16.47;;;9.50;;
25409;SDS011;13339;50.840;4.346;2022-08-19T07:21:10;19.10;;;8.97;;
25409;SDS011;13339;50.840;4.346;2022-08-19T07:23:40;14.63;;;8.60;;
25409;SDS011;13339;50.840;4.346;2022-08-19T07:26:08;16.57;;;10.23;;
25409;SDS011;13339;50.840;4.346;2022-08-19T07:28:46;16.77;;;7.97;;
25409;SDS011;13339;50.840;4.346;2022-08-19T07:31:16;15.83;;;8.27;;
25409;SDS011;13339;50.840;4.346;2022-08-19T07:33:44;13.87;;;8.50;;
25409;SDS011;13339;50.840;4.346;2022-08-19T07:36:12;13.30;;;7.87;;
25409;SDS011;13339;50.840;4.346;2022-08-19T07:38:40;11.53;;;8.10;;
25409;SDS011;13339;50.840;4.346;2022-08-19T07:41:10;15.33;;;8.13;;
25409;SDS011;13339;50.840;4.346;2022-08-19T07:43:37;10.00;;;7.07;;
25409;SDS011;13339;50.840;4.346;2022-08-19T07:46:04;12.33;;;7.90;;
25409;SDS011;13339;50.840;4.346;2022-08-19T07:48:30;14.13;;;7.90;;
25409;SDS011;13339;50.840;4.346;2022-08-19T07:51:00;13.93;;;7.87;;
25409;SDS011;13339;50.840;4.346;2022-08-19T07:53:28;10.97;;;6.83;;
25409;SDS011;13339;50.840;4.346;2022-08-19T07:55:55;10.43;;;7.47;;
25409;SDS011;13339;50.840;4.346;2022-08-19T07:58:23;12.40;;;7.83;;
25409;SDS011;13339;50.840;4.346;2022-08-19T08:00:49;11.13;;;7.07;;
25409;SDS011;13339;50.840;4.346;2022-08-19T08:03:16;12.83;;;6.70;;
25409;SDS011;13339;50.840;4.346;2022-08-19T08:05:44;14.70;;;7.87;;
25409;SDS011;13339;50.840;4.346;2022-08-19T08:08:29;13.50;;;7.10;;
25409;SDS011;13339;50.840;4.346;2022-08-19T08:11:00;11.33;;;6.73;;
25409;SDS011;13339;50.840;4.346;2022-08-19T08:13:26;10.83;;;6.43;;
25409;SDS011;13339;50.840;4.346;2022-08-19T08:15:52;14.40;;;7.30;;
25409;SDS011;13339;50.840;4.346;2022-08-19T08:18:18;12.10;;;7.87;;
25409;SDS011;13339;50.840;4.346;2022-08-19T08:20:45;9.87;;;6.77;;
25409;SDS011;13339;50.840;4.346;2022-08-19T08:23:12;10.23;;;6.27;;
25409;SDS011;13339;50.840;4.346;2022-08-19T08:25:55;10.23;;;6.43;;
25409;SDS011;13339;50.840;4.346;2022-08-19T08:28:22;11.80;;;5.50;;
25409;SDS011;13339;50.840;4.346;2022-08-19T08:30:48;13.83;;;6.40;;
25409;SDS011;13339;50.840;4.346;2022-08-19T08:33:19;7.80;;;5.20;;
25409;SDS011;13339;50.840;4.346;2022-08-19T08:35:47;9.50;;;5.83;;
25409;SDS011;13339;50.840;4.346;2022-08-19T08:38:13;10.27;;;6.70;;
25409;SDS011;13339;50.840;4.346;2022-08-19T08:40:45;9.07;;;6.30;;
25409;SDS011;13339;50.840;4.346;2022-08-19T08:46:00;9.13;;;6.20;;
25409;SDS011;13339;50.840;4.346;2022-08-19T08:51:07;9.90;;;6.27;;
25409;SDS011;13339;50.840;4.346;2022-08-19T08:53:38;10.47;;;6.07;;
25409;SDS011;13339;50.840;4.346;2022-08-19T08:56:06;9.17;;;6.20;;
25409;SDS011;13339;50.840;4.346;2022-08-19T08:58:47;7.83;;;6.00;;
25409;SDS011;13339;50.840;4.346;2022-08-19T09:01:25;8.60;;;5.73;;
25409;SDS011;13339;50.840;4.346;2022-08-19T09:03:51;8.77;;;6.10;;
25409;SDS011;13339;50.840;4.346;2022-08-19T09:08:57;8.07;;;6.03;;
25409;SDS011;13339;50.840;4.346;2022-08-19T09:17:01;6.63;;;5.40;;
25409;SDS011;13339;50.840;4.346;2022-08-19T09:19:28;8.40;;;5.40;;
25409;SDS011;13339;50.840;4.346;2022-08-19T09:21:55;9.27;;;5.77;;
25409;SDS011;13339;50.840;4.346;2022-08-19T09:24:20;10.93;;;5.73;;
25409;SDS011;13339;50.840;4.346;2022-08-19T09:26:46;9.60;;;5.47;;
25409;SDS011;13339;50.840;4.346;2022-08-19T09:29:12;10.80;;;5.53;;
25409;SDS011;13339;50.840;4.346;2022-08-19T09:31:38;12.23;;;6.13;;
25409;SDS011;13339;50.840;4.346;2022-08-19T09:34:03;9.03;;;5.63;;
25409;SDS011;13339;50.840;4.346;2022-08-19T09:36:30;10.10;;;6.10;;
25409;SDS011;13339;50.840;4.346;2022-08-19T09:39:02;9.13;;;6.40;;
25409;SDS011;13339;50.840;4.346;2022-08-19T09:41:28;6.60;;;5.37;;
25409;SDS011;13339;50.840;4.346;2022-08-19T09:43:54;12.57;;;5.87;;
25409;SDS011;13339;50.840;4.346;2022-08-19T09:46:22;8.40;;;5.90;;
25409;SDS011;13339;50.840;4.346;2022-08-19T09:48:50;12.20;;;6.17;;
25409;SDS011;13339;50.840;4.346;2022-08-19T09:51:21;8.90;;;5.90;;
25409;SDS011;13339;50.840;4.346;2022-08-19T09:53:49;9.60;;;5.50;;
25409;SDS011;13339;50.840;4.346;2022-08-19T09:56:16;7.97;;;5.57;;
25409;SDS011;13339;50.840;4.346;2022-08-19T09:58:42;8.50;;;5.57;;
25409;SDS011;13339;50.840;4.346;2022-08-19T10:01:09;7.50;;;4.80;;
25409;SDS011;13339;50.840;4.346;2022-08-19T10:03:40;5.57;;;4.90;;
25409;SDS011;13339;50.840;4.346;2022-08-19T10:06:06;6.93;;;4.70;;
25409;SDS011;13339;50.840;4.346;2022-08-19T10:08:32;7.30;;;4.97;;
25409;SDS011;13339;50.840;4.346;2022-08-19T10:11:00;7.77;;;4.97;;
25409;SDS011;13339;50.840;4.346;2022-08-19T10:13:29;5.37;;;4.63;;
25409;SDS011;13339;50.840;4.346;2022-08-19T10:16:02;8.30;;;5.77;;
25409;SDS011;13339;50.840;4.346;2022-08-19T10:18:34;6.83;;;5.03;;
25409;SDS011;13339;50.840;4.346;2022-08-19T10:21:07;9.50;;;4.87;;
25409;SDS011;13339;50.840;4.346;2022-08-19T10:23:36;8.83;;;5.00;;
25409;SDS011;13339;50.840;4.346;2022-08-19T10:26:04;8.27;;;5.73;;
25409;SDS011;13339;50.840;4.346;2022-08-19T10:28:31;8.53;;;6.17;;
25409;SDS011;13339;50.840;4.346;2022-08-19T10:30:58;9.43;;;6.23;;
25409;SDS011;13339;50.840;4.346;2022-08-19T10:33:27;11.03;;;7.13;;
25409;SDS011;13339;50.840;4.346;2022-08-19T10:36:00;9.53;;;6.67;;
25409;SDS011;13339;50.840;4.346;2022-08-19T10:38:27;11.17;;;7.93;;
25409;SDS011;13339;50.840;4.346;2022-08-19T10:40:53;8.87;;;6.77;;
25409;SDS011;13339;50.840;4.346;2022-08-19T10:43:19;8.43;;;7.10;;
25409;SDS011;13339;50.840;4.346;2022-08-19T10:45:51;12.83;;;7.80;;
25409;SDS011;13339;50.840;4.346;2022-08-19T10:48:18;10.17;;;7.67;;
25409;SDS011;13339;50.840;4.346;2022-08-19T10:50:44;16.23;;;7.30;;
25409;SDS011;13339;50.840;4.346;2022-08-19T10:53:28;9.80;;;7.93;;
25409;SDS011;13339;50.840;4.346;2022-08-19T10:55:54;10.57;;;8.07;;
25409;SDS011;13339;50.840;4.346;2022-08-19T10:58:38;12.13;;;7.40;;
25409;SDS011;13339;50.840;4.346;2022-08-19T11:01:04;10.57;;;7.43;;
25409;SDS011;13339;50.840;4.346;2022-08-19T11:03:29;13.90;;;8.73;;
25409;SDS011;13339;50.840;4.346;2022-08-19T11:06:02;11.93;;;8.80;;
25409;SDS011;13339;50.840;4.346;2022-08-19T11:08:31;10.43;;;6.87;;
25409;SDS011;13339;50.840;4.346;2022-08-19T11:10:59;7.10;;;6.40;;
25409;SDS011;13339;50.840;4.346;2022-08-19T11:13:29;8.13;;;6.40;;
25409;SDS011;13339;50.840;4.346;2022-08-19T11:15:58;8.70;;;5.53;;
25409;SDS011;13339;50.840;4.346;2022-08-19T11:18:37;10.07;;;5.70;;
25409;SDS011;13339;50.840;4.346;2022-08-19T11:21:14;5.97;;;5.20;;
25409;SDS011;13339;50.840;4.346;2022-08-19T11:23:42;11.23;;;7.33;;
25409;SDS011;13339;50.840;4.346;2022-08-19T11:26:09;13.53;;;9.07;;
25409;SDS011;13339;50.840;4.346;2022-08-19T11:28:35;10.60;;;9.50;;
25409;SDS011;13339;50.840;4.346;2022-08-19T11:31:01;17.17;;;10.75;;
25409;SDS011;13339;50.840;4.346;2022-08-19T11:33:28;10.73;;;9.63;;
25409;SDS011;13339;50.840;4.346;2022-08-19T11:35:56;16.57;;;8.70;;
25409;SDS011;13339;50.840;4.346;2022-08-19T11:38:23;12.97;;;9.53;;
25409;SDS011;13339;50.840;4.346;2022-08-19T11:40:57;12.10;;;9.63;;
25409;SDS011;13339;50.840;4.346;2022-08-19T11:43:24;11.77;;;9.05;;
25409;SDS011;13339;50.840;4.346;2022-08-19T11:45:51;15.10;;;8.63;;
25409;SDS011;13339;50.840;4.346;2022-08-19T11:48:18;11.67;;;8.57;;
25409;SDS011;13339;50.840;4.346;2022-08-19T11:50:46;11.73;;;8.60;;
25409;SDS011;13339;50.840;4.346;2022-08-19T11:53:16;14.73;;;8.37;;
25409;SDS011;13339;50.840;4.346;2022-08-19T11:55:43;10.47;;;7.50;;
25409;SDS011;13339;50.840;4.346;2022-08-19T11:58:10;12.02;;;7.90;;
25409;SDS011;13339;50.840;4.346;2022-08-19T12:00:37;9.40;;;7.33;;
25409;SDS011;13339;50.840;4.346;2022-08-19T12:03:03;10.65;;;7.40;;
25409;SDS011;13339;50.840;4.346;2022-08-19T12:05:29;9.65;;;6.30;;
25409;SDS011;13339;50.840;4.346;2022-08-19T12:07:55;12.90;;;6.78;;
25409;SDS011;13339;50.840;4.346;2022-08-19T12:10:21;8.27;;;6.05;;
25409;SDS011;13339;50.840;4.346;2022-08-19T12:12:47;5.97;;;5.35;;
25409;SDS011;13339;50.840;4.346;2022-08-19T12:15:13;5.95;;;5.45;;
25409;SDS011;13339;50.840;4.346;2022-08-19T12:17:39;11.48;;;5.22;;
25409;SDS011;13339;50.840;4.346;2022-08-19T12:20:07;8.05;;;5.63;;
25409;SDS011;13339;50.840;4.346;2022-08-19T12:22:35;6.75;;;5.07;;
25409;SDS011;13339;50.840;4.346;2022-08-19T12:25:02;9.82;;;4.97;;
25409;SDS011;13339;50.840;4.346;2022-08-19T12:27:29;5.05;;;4.55;;
25409;SDS011;13339;50.840;4.346;2022-08-19T12:29:55;6.53;;;4.45;;
25409;SDS011;13339;50.840;4.346;2022-08-19T12:32:22;5.63;;;4.60;;
25409;SDS011;13339;50.840;4.346;2022-08-19T12:34:49;5.63;;;3.95;;
25409;SDS011;13339;50.840;4.346;2022-08-19T12:37:15;5.15;;;4.13;;
25409;SDS011;13339;50.840;4.346;2022-08-19T12:39:42;4.68;;;3.83;;
25409;SDS011;13339;50.840;4.346;2022-08-19T12:42:09;6.22;;;4.15;;
25409;SDS011;13339;50.840;4.346;2022-08-19T12:44:37;7.80;;;3.45;;
25409;SDS011;13339;50.840;4.346;2022-08-19T12:47:04;7.13;;;3.40;;
25409;SDS011;13339;50.840;4.346;2022-08-19T12:49:32;5.63;;;3.53;;
25409;SDS011;13339;50.840;4.346;2022-08-19T12:52:01;6.68;;;3.15;;
25409;SDS011;13339;50.840;4.346;2022-08-19T12:54:28;4.25;;;3.20;;
25409;SDS011;13339;50.840;4.346;2022-08-19T12:56:55;5.60;;;3.75;;
25409;SDS011;13339;50.840;4.346;2022-08-19T12:59:22;3.53;;;3.13;;
25409;SDS011;13339;50.840;4.346;2022-08-19T13:01:47;6.55;;;3.28;;
25409;SDS011;13339;50.840;4.346;2022-08-19T13:04:13;4.45;;;2.85;;
25409;SDS011;13339;50.840;4.346;2022-08-19T13:06:39;8.07;;;3.70;;
25409;SDS011;13339;50.840;4.346;2022-08-19T13:09:05;6.82;;;3.42;;
25409;SDS011;13339;50.840;4.346;2022-08-19T13:11:30;4.35;;;3.80;;
25409;SDS011;13339;50.840;4.346;2022-08-19T13:13:58;3.67;;;3.10;;
25409;SDS011;13339;50.840;4.346;2022-08-19T13:16:25;3.75;;;2.72;;
25409;SDS011;13339;50.840;4.346;2022-08-19T13:18:53;3.28;;;2.97;;
25409;SDS011;13339;50.840;4.346;2022-08-19T13:21:20;5.90;;;2.78;;
25409;SDS011;13339;50.840;4.346;2022-08-19T13:23:49;7.00;;;2.88;;
25409;SDS011;13339;50.840;4.346;2022-08-19T13:26:15;3.00;;;2.70;;
25409;SDS011;13339;50.840;4.346;2022-08-19T13:28:42;5.05;;;2.47;;
25409;SDS011;13339;50.840;4.346;2022-08-19T13:31:28;3.20;;;2.40;;
25409;SDS011;13339;50.840;4.346;2022-08-19T13:34:16;4.25;;;2.67;;
25409;SDS011;13339;50.840;4.346;2022-08-19T13:36:45;4.43;;;2.63;;
25409;SDS011;13339;50.840;4.346;2022-08-19T13:39:11;4.00;;;2.30;;
25409;SDS011;13339;50.840;4.346;2022-08-19T13:41:37;4.05;;;2.30;;
25409;SDS011;13339;50.840;4.346;2022-08-19T13:44:10;4.03;;;2.28;;
25409;SDS011;13339;50.840;4.346;2022-08-19T13:46:36;9.30;;;2.50;;
25409;SDS011;13339;50.840;4.346;2022-08-19T13:49:01;4.63;;;2.28;;
25409;SDS011;13339;50.840;4.346;2022-08-19T13:51:27;6.75;;;2.80;;
25409;SDS011;13339;50.840;4.346;2022-08-19T13:53:53;3.70;;;2.70;;
25409;SDS011;13339;50.840;4.346;2022-08-19T13:56:20;6.80;;;2.40;;
25409;SDS011;13339;50.840;4.346;2022-08-19T13:58:45;4.65;;;2.58;;
25409;SDS011;13339;50.840;4.346;2022-08-19T14:01:11;4.43;;;2.33;;
25409;SDS011;13339;50.840;4.346;2022-08-19T14:03:37;4.20;;;2.38;;
25409;SDS011;13339;50.840;4.346;2022-08-19T14:06:03;4.63;;;3.10;;
25409;SDS011;13339;50.840;4.346;2022-08-19T14:08:29;3.03;;;2.42;;
25409;SDS011;13339;50.840;4.346;2022-08-19T14:10:57;6.57;;;2.50;;
25409;SDS011;13339;50.840;4.346;2022-08-19T14:13:23;7.35;;;2.53;;
25409;SDS011;13339;50.840;4.346;2022-08-19T14:15:49;9.02;;;2.42;;
25409;SDS011;13339;50.840;4.346;2022-08-19T14:18:16;3.73;;;2.20;;
25409;SDS011;13339;50.840;4.346;2022-08-19T14:20:43;2.60;;;2.13;;
25409;SDS011;13339;50.840;4.346;2022-08-19T14:23:08;7.32;;;2.75;;
25409;SDS011;13339;50.840;4.346;2022-08-19T14:25:34;5.93;;;2.50;;
25409;SDS011;13339;50.840;4.346;2022-08-19T14:28:00;4.87;;;2.27;;
25409;SDS011;13339;50.840;4.346;2022-08-19T14:30:30;3.50;;;2.20;;
25409;SDS011;13339;50.840;4.346;2022-08-19T14:32:59;4.13;;;2.00;;
25409;SDS011;13339;50.840;4.346;2022-08-19T14:35:27;5.35;;;1.98;;
25409;SDS011;13339;50.840;4.346;2022-08-19T14:37:54;3.27;;;1.70;;
25409;SDS011;13339;50.840;4.346;2022-08-19T14:40:21;5.27;;;1.90;;
25409;SDS011;13339;50.840;4.346;2022-08-19T14:42:59;1.93;;;1.83;;
25409;SDS011;13339;50.840;4.346;2022-08-19T14:45:28;3.90;;;2.00;;
25409;SDS011;13339;50.840;4.346;2022-08-19T14:47:56;4.17;;;1.83;;
25409;SDS011;13339;50.840;4.346;2022-08-19T14:50:22;2.80;;;1.77;;
25409;SDS011;13339;50.840;4.346;2022-08-19T14:52:48;2.80;;;1.90;;
25409;SDS011;13339;50.840;4.346;2022-08-19T14:55:15;1.77;;;1.67;;
25409;SDS011;13339;50.840;4.346;2022-08-19T14:57:41;2.13;;;1.83;;